Time,TemperatureF,DewpointF,PressureIn,WindDirection,WindDirectionDegrees,WindSpeedMPH,WindSpeedGustMPH,Humidity,HourlyPrecipIn,Conditions,Clouds,dailyrainin,SoftwareType,DateUTC
2013-04-20 00:01:00,49.4,45.7,29.66,ENE,67,3.0,3.0,87,0.00,,,0.20,Wunderground v.1.13,2013-04-20 04:01:00,
2013-04-20 00:02:00,49.4,46.0,29.66,NE,46,3.0,3.0,88,0.00,,,0.00,Wunderground v.1.13,2013-04-20 04:02:00,
2013-04-20 00:03:00,49.4,46.0,29.65,NE,53,0.0,3.0,88,0.00,,,0.00,Wunderground v.1.13,2013-04-20 04:03:00,
2013-04-20 00:07:00,49.3,45.9,29.65,ENE,59,0.0,1.0,88,0.00,,,0.00,Wunderground v.1.13,2013-04-20 04:07:00,
2013-04-20 00:12:00,49.2,46.1,29.65,ENE,57,1.0,1.0,89,0.00,,,0.00,Wunderground v.1.13,2013-04-20 04:12:00,
2013-04-20 00:14:00,49.1,45.7,29.65,SSW,201,0.0,1.0,88,0.00,,,0.00,Wunderground v.1.13,2013-04-20 04:14:00,
2013-04-20 00:19:00,49.0,45.9,29.65,SW,221,1.0,1.0,89,0.00,,,0.00,Wunderground v.1.13,2013-04-20 04:19:00,
2013-04-20 00:25:00,49.0,45.9,29.67,SW,221,0.0,1.0,89,0.00,,,0.00,Wunderground v.1.13,2013-04-20 04:25:00,
2013-04-20 00:30:00,49.0,45.9,29.68,SW,221,0.0,0.0,89,0.00,,,0.00,Wunderground v.1.13,2013-04-20 04:30:00,
2013-04-20 00:36:00,48.9,45.8,29.66,SE,136,1.0,1.0,89,0.00,,,0.00,Wunderground v.1.13,2013-04-20 04:36:00,
2013-04-20 00:41:00,48.8,46.0,29.64,SE,136,0.0,0.0,90,0.00,,,0.01,Wunderground v.1.13,2013-04-20 04:41:00,
2013-04-20 00:47:00,48.5,45.4,29.64,SE,137,0.0,0.0,89,0.00,,,0.01,Wunderground v.1.13,2013-04-20 04:47:00,
2013-04-20 00:52:00,48.2,45.1,29.64,SE,137,0.0,0.0,89,0.00,,,0.01,Wunderground v.1.13,2013-04-20 04:52:00,
2013-04-20 00:58:00,48.0,44.9,29.64,NNE,15,1.0,1.0,89,0.00,,,0.01,Wunderground v.1.13,2013-04-20 04:58:00,
2013-04-20 01:03:00,47.6,44.2,29.65,East,99,2.0,2.0,88,0.00,,,0.01,Wunderground v.1.13,2013-04-20 05:03:00,
2013-04-20 01:09:00,47.3,43.6,29.65,East,99,0.0,2.0,87,0.00,,,0.01,Wunderground v.1.13,2013-04-20 05:09:00,
2013-04-20 01:14:00,47.2,43.8,29.66,East,99,1.0,1.0,88,0.00,,,0.01,Wunderground v.1.13,2013-04-20 05:14:00,
2013-04-20 01:20:00,47.2,44.1,29.66,East,99,0.0,0.0,89,0.00,,,0.01,Wunderground v.1.13,2013-04-20 05:20:00,
2013-04-20 01:26:00,47.0,43.0,29.68,SSW,192,4.0,4.0,86,0.00,,,0.01,Wunderground v.1.13,2013-04-20 05:26:00,
2013-04-20 01:31:00,46.9,42.6,29.68,East,86,0.0,1.0,85,0.00,,,0.01,Wunderground v.1.13,2013-04-20 05:31:00,
2013-04-20 01:37:00,46.7,42.1,29.67,SSW,198,2.0,3.0,84,0.00,,,0.01,Wunderground v.1.13,2013-04-20 05:37:00,
2013-04-20 01:42:00,46.6,42.3,29.68,WSW,248,0.0,3.0,85,0.00,,,0.01,Wunderground v.1.13,2013-04-20 05:42:00,
2013-04-20 01:47:00,46.5,42.5,29.69,South,175,0.0,2.0,86,0.00,,,0.01,Wunderground v.1.13,2013-04-20 05:47:00,
2013-04-20 01:53:00,46.4,42.4,29.68,ESE,114,2.0,2.0,86,0.00,,,0.01,Wunderground v.1.13,2013-04-20 05:53:00,
2013-04-20 01:58:00,46.1,42.1,29.68,NW,304,1.0,1.0,86,0.00,,,0.01,Wunderground v.1.13,2013-04-20 05:58:00,
2013-04-20 02:03:00,45.6,41.7,29.69,NE,53,2.0,2.0,86,0.00,,,0.01,Wunderground v.1.13,2013-04-20 06:03:00,
2013-04-20 02:08:00,45.3,40.7,29.68,ENE,59,5.0,5.0,84,0.00,,,0.01,Wunderground v.1.13,2013-04-20 06:08:00,
2013-04-20 02:13:00,45.0,40.5,29.69,NE,44,3.0,7.0,84,0.00,,,0.01,Wunderground v.1.13,2013-04-20 06:13:00,
2013-04-20 02:18:00,44.7,38.9,29.68,NNE,31,5.0,9.0,80,0.00,,,0.01,Wunderground v.1.13,2013-04-20 06:18:00,
2013-04-20 02:24:00,44.5,38.7,29.68,North,355,2.0,9.0,80,0.00,,,0.01,Wunderground v.1.13,2013-04-20 06:24:00,
2013-04-20 02:29:00,44.3,39.5,29.67,ESE,120,1.0,3.0,83,0.00,,,0.01,Wunderground v.1.13,2013-04-20 06:29:00,
2013-04-20 02:34:00,44.1,38.6,29.68,South,180,3.0,7.0,81,0.00,,,0.01,Wunderground v.1.13,2013-04-20 06:34:00,
2013-04-20 02:39:00,44.0,38.2,29.67,NE,51,0.0,3.0,80,0.00,,,0.01,Wunderground v.1.13,2013-04-20 06:39:00,
2013-04-20 02:44:00,43.8,38.3,29.68,WNW,297,2.0,5.0,81,0.00,,,0.01,Wunderground v.1.13,2013-04-20 06:44:00,
2013-04-20 02:49:00,43.6,37.8,29.69,ENE,74,2.0,6.0,80,0.00,,,0.01,Wunderground v.1.13,2013-04-20 06:49:00,
2013-04-20 02:54:00,43.3,37.9,29.69,SW,223,1.0,4.0,81,0.00,,,0.01,Wunderground v.1.13,2013-04-20 06:54:00,
2013-04-20 02:59:00,43.1,38.0,29.70,ESE,123,1.0,5.0,82,0.00,,,0.02,Wunderground v.1.13,2013-04-20 06:59:00,
2013-04-20 03:05:00,42.8,37.7,29.69,NW,317,0.0,1.0,82,0.00,,,0.02,Wunderground v.1.13,2013-04-20 07:05:00,
2013-04-20 03:10:00,42.6,37.5,29.68,NW,321,0.0,1.0,82,0.00,,,0.02,Wunderground v.1.13,2013-04-20 07:10:00,
2013-04-20 03:15:00,42.4,37.6,29.68,WSW,246,0.0,1.0,83,0.00,,,0.02,Wunderground v.1.13,2013-04-20 07:15:00,
2013-04-20 03:20:00,42.3,37.5,29.68,WSW,246,0.0,1.0,83,0.00,,,0.02,Wunderground v.1.13,2013-04-20 07:20:00,
2013-04-20 03:25:00,42.1,37.3,29.68,WSW,246,0.0,1.0,83,0.00,,,0.02,Wunderground v.1.13,2013-04-20 07:25:00,
2013-04-20 03:30:00,42.0,37.5,29.69,South,182,0.0,1.0,84,0.00,,,0.02,Wunderground v.1.13,2013-04-20 07:30:00,
2013-04-20 03:35:00,41.9,37.4,29.70,South,188,0.0,0.0,84,0.00,,,0.02,Wunderground v.1.13,2013-04-20 07:35:00,
2013-04-20 03:40:00,41.8,37.9,29.70,South,188,0.0,0.0,86,0.00,,,0.02,Wunderground v.1.13,2013-04-20 07:40:00,
2013-04-20 03:45:00,41.7,38.1,29.69,South,188,0.0,0.0,87,0.00,,,0.02,Wunderground v.1.13,2013-04-20 07:45:00,
2013-04-20 03:50:00,41.6,38.3,29.69,South,188,0.0,0.0,88,0.00,,,0.03,Wunderground v.1.13,2013-04-20 07:50:00,
2013-04-20 03:56:00,41.4,37.8,29.69,South,188,0.0,0.0,87,0.00,,,0.03,Wunderground v.1.13,2013-04-20 07:56:00,
2013-04-20 04:01:00,41.3,38.0,29.69,South,188,0.0,0.0,88,0.00,,,0.03,Wunderground v.1.13,2013-04-20 08:01:00,
2013-04-20 04:06:00,41.2,37.6,29.68,South,188,0.0,1.0,87,0.04,,,0.04,Wunderground v.1.13,2013-04-20 08:06:00,
2013-04-20 04:11:00,41.3,38.0,29.68,South,188,0.0,0.0,88,0.04,,,0.04,Wunderground v.1.13,2013-04-20 08:11:00,
2013-04-20 04:16:00,41.3,38.3,29.70,South,188,2.0,2.0,89,0.06,,,0.05,Wunderground v.1.13,2013-04-20 08:16:00,
2013-04-20 04:21:00,41.1,38.1,29.71,South,188,0.0,1.0,89,0.09,,,0.06,Wunderground v.1.13,2013-04-20 08:21:00,
2013-04-20 04:27:00,41.0,38.0,29.71,South,188,0.0,1.0,89,0.12,,,0.07,Wunderground v.1.13,2013-04-20 08:27:00,
2013-04-20 04:32:00,41.0,38.0,29.71,South,188,0.0,0.0,89,0.11,,,0.08,Wunderground v.1.13,2013-04-20 08:32:00,
2013-04-20 04:37:00,41.1,38.1,29.72,South,188,0.0,0.0,89,0.10,,,0.08,Wunderground v.1.13,2013-04-20 08:37:00,
2013-04-20 04:42:00,41.0,38.0,29.71,South,188,0.0,0.0,89,0.08,,,0.09,Wunderground v.1.13,2013-04-20 08:42:00,
2013-04-20 04:47:00,40.9,38.2,29.71,South,188,0.0,0.0,90,0.07,,,0.09,Wunderground v.1.13,2013-04-20 08:47:00,
2013-04-20 04:52:00,40.8,37.8,29.70,South,188,0.0,0.0,89,0.05,,,0.10,Wunderground v.1.13,2013-04-20 08:52:00,
2013-04-20 04:57:00,40.6,37.6,29.69,South,188,0.0,1.0,89,0.05,,,0.10,Wunderground v.1.13,2013-04-20 08:57:00,
2013-04-20 05:02:00,40.4,37.4,29.71,WNW,298,0.0,2.0,89,0.05,,,0.10,Wunderground v.1.13,2013-04-20 09:02:00,
2013-04-20 05:07:00,40.2,36.9,29.71,SSW,211,0.0,1.0,88,0.04,,,0.10,Wunderground v.1.13,2013-04-20 09:07:00,
2013-04-20 05:12:00,40.0,37.0,29.72,East,84,0.0,2.0,89,0.00,,,0.10,Wunderground v.1.13,2013-04-20 09:12:00,
2013-04-20 05:17:00,39.8,36.8,29.71,East,84,0.0,0.0,89,0.00,,,0.10,Wunderground v.1.13,2013-04-20 09:17:00,
2013-04-20 05:22:00,39.8,36.8,29.70,East,85,0.0,0.0,89,0.00,,,0.10,Wunderground v.1.13,2013-04-20 09:22:00,
2013-04-20 05:28:00,39.9,37.2,29.71,East,85,0.0,0.0,90,0.00,,,0.10,Wunderground v.1.13,2013-04-20 09:28:00,
2013-04-20 05:33:00,40.1,37.4,29.71,East,84,0.0,0.0,90,0.00,,,0.10,Wunderground v.1.13,2013-04-20 09:33:00,
2013-04-20 05:38:00,40.1,37.4,29.71,East,85,0.0,0.0,90,0.00,,,0.10,Wunderground v.1.13,2013-04-20 09:38:00,
2013-04-20 05:43:00,40.1,37.4,29.70,NE,38,0.0,1.0,90,0.00,,,0.10,Wunderground v.1.13,2013-04-20 09:43:00,
2013-04-20 05:48:00,40.0,37.3,29.70,NE,36,0.0,3.0,90,0.00,,,0.10,Wunderground v.1.13,2013-04-20 09:48:00,
2013-04-20 05:53:00,40.0,37.3,29.70,NE,37,1.0,1.0,90,0.00,,,0.10,Wunderground v.1.13,2013-04-20 09:53:00,
2013-04-20 05:58:00,39.9,36.9,29.70,NW,307,1.0,2.0,89,0.00,,,0.10,Wunderground v.1.13,2013-04-20 09:58:00,
2013-04-20 06:04:00,39.8,36.5,29.71,NE,51,0.0,3.0,88,0.00,,,0.10,Wunderground v.1.13,2013-04-20 10:04:00,
2013-04-20 06:09:00,39.6,36.3,29.72,North,5,0.0,3.0,88,0.00,,,0.10,Wunderground v.1.13,2013-04-20 10:09:00,
2013-04-20 06:14:00,39.6,35.8,29.72,WNW,286,0.0,6.0,86,0.00,,,0.10,Wunderground v.1.13,2013-04-20 10:14:00,
2013-04-20 06:19:00,39.7,35.9,29.73,SE,134,3.0,6.0,86,0.00,,,0.10,Wunderground v.1.13,2013-04-20 10:19:00,
2013-04-20 06:24:00,39.7,35.6,29.73,ENE,74,1.0,8.0,85,0.00,,,0.10,Wunderground v.1.13,2013-04-20 10:24:00,
2013-04-20 06:29:00,39.7,35.9,29.73,NNE,24,0.0,3.0,86,0.00,,,0.10,Wunderground v.1.13,2013-04-20 10:29:00,
2013-04-20 06:34:00,39.6,36.0,29.74,NNE,24,0.0,1.0,87,0.00,,,0.10,Wunderground v.1.13,2013-04-20 10:34:00,
2013-04-20 06:39:00,39.6,35.8,29.75,NNE,24,0.0,0.0,86,0.00,,,0.10,Wunderground v.1.13,2013-04-20 10:39:00,
2013-04-20 06:44:00,39.7,35.9,29.75,NNE,24,0.0,0.0,86,0.00,,,0.10,Wunderground v.1.13,2013-04-20 10:44:00,
2013-04-20 06:49:00,39.6,35.8,29.75,NNE,24,0.0,2.0,86,0.00,,,0.10,Wunderground v.1.13,2013-04-20 10:49:00,
2013-04-20 06:54:00,39.7,35.9,29.75,NNE,24,0.0,1.0,86,0.00,,,0.10,Wunderground v.1.13,2013-04-20 10:54:00,
2013-04-20 06:59:00,39.8,36.5,29.75,NNE,24,0.0,0.0,88,0.00,,,0.10,Wunderground v.1.13,2013-04-20 10:59:00,
2013-04-20 07:04:00,39.8,36.5,29.75,NNE,24,0.0,0.0,88,0.00,,,0.10,Wunderground v.1.13,2013-04-20 11:04:00,
2013-04-20 07:09:00,40.0,36.7,29.75,NNE,24,0.0,0.0,88,0.00,,,0.10,Wunderground v.1.13,2013-04-20 11:09:00,
2013-04-20 07:14:00,40.2,36.9,29.75,NNE,24,0.0,0.0,88,0.00,,,0.10,Wunderground v.1.13,2013-04-20 11:14:00,
2013-04-20 07:19:00,40.3,37.0,29.76,NNE,24,0.0,0.0,88,0.00,,,0.10,Wunderground v.1.13,2013-04-20 11:19:00,
2013-04-20 07:24:00,40.4,37.4,29.75,NNE,24,0.0,0.0,89,0.00,,,0.10,Wunderground v.1.13,2013-04-20 11:24:00,
2013-04-20 07:30:00,40.5,37.5,29.75,NNE,24,0.0,0.0,89,0.00,,,0.10,Wunderground v.1.13,2013-04-20 11:30:00,
2013-04-20 07:35:00,40.7,37.7,29.76,NNE,24,0.0,0.0,89,0.00,,,0.10,Wunderground v.1.13,2013-04-20 11:35:00,
2013-04-20 07:40:00,40.9,37.6,29.76,NNE,24,0.0,0.0,88,0.00,,,0.10,Wunderground v.1.13,2013-04-20 11:40:00,
2013-04-20 07:45:00,41.1,38.1,29.76,NNE,24,0.0,0.0,89,0.00,,,0.10,Wunderground v.1.13,2013-04-20 11:45:00,
2013-04-20 07:50:00,41.1,37.8,29.76,NNE,24,0.0,0.0,88,0.00,,,0.10,Wunderground v.1.13,2013-04-20 11:50:00,
2013-04-20 07:55:00,41.3,38.0,29.76,NNE,24,0.0,0.0,88,0.00,,,0.10,Wunderground v.1.13,2013-04-20 11:55:00,
2013-04-20 08:00:00,41.6,37.7,29.76,NNE,24,0.0,0.0,86,0.00,,,0.10,Wunderground v.1.13,2013-04-20 12:00:00,
2013-04-20 08:06:00,41.8,37.9,29.77,NNE,24,1.0,1.0,86,0.00,,,0.10,Wunderground v.1.13,2013-04-20 12:06:00,
2013-04-20 08:10:00,42.0,37.5,29.77,NNE,24,0.0,0.0,84,0.00,,,0.10,Wunderground v.1.13,2013-04-20 12:10:00,
2013-04-20 08:16:00,41.9,37.4,29.77,NNE,24,1.0,1.0,84,0.00,,,0.10,Wunderground v.1.13,2013-04-20 12:16:00,
2013-04-20 08:21:00,41.8,35.8,29.77,SSE,155,0.0,1.0,79,0.00,,,0.10,Wunderground v.1.13,2013-04-20 12:21:00,
2013-04-20 08:25:00,41.9,37.1,29.77,SSE,155,0.0,1.0,83,0.00,,,0.10,Wunderground v.1.13,2013-04-20 12:25:00,
2013-04-20 08:31:00,41.9,35.5,29.77,NNE,33,0.0,3.0,78,0.00,,,0.10,Wunderground v.1.13,2013-04-20 12:31:00,
2013-04-20 08:36:00,41.9,36.8,29.77,NNW,328,4.0,4.0,82,0.00,,,0.10,Wunderground v.1.13,2013-04-20 12:36:00,
2013-04-20 08:41:00,41.9,35.5,29.77,WNW,287,1.0,9.0,78,0.00,,,0.10,Wunderground v.1.13,2013-04-20 12:41:00,
2013-04-20 08:46:00,42.0,35.6,29.77,NE,46,3.0,11.0,78,0.00,,,0.10,Wunderground v.1.13,2013-04-20 12:46:00,
2013-04-20 08:51:00,42.3,36.3,29.77,NE,36,7.0,9.0,79,0.00,,,0.10,Wunderground v.1.13,2013-04-20 12:51:00,
2013-04-20 08:56:00,42.5,36.1,29.77,North,5,3.0,4.0,78,0.00,,,0.10,Wunderground v.1.13,2013-04-20 12:56:00,
2013-04-20 09:01:00,42.7,36.6,29.76,SSE,153,4.0,7.0,79,0.00,,,0.10,Wunderground v.1.13,2013-04-20 13:01:00,
2013-04-20 09:06:00,42.7,35.3,29.77,NE,55,0.0,11.0,75,0.00,,,0.10,Wunderground v.1.13,2013-04-20 13:06:00,
2013-04-20 09:11:00,43.0,36.0,29.77,East,83,2.0,5.0,76,0.00,,,0.10,Wunderground v.1.13,2013-04-20 13:11:00,
2013-04-20 09:16:00,43.5,35.8,29.77,ENE,63,2.0,7.0,74,0.00,,,0.10,Wunderground v.1.13,2013-04-20 13:16:00,
2013-04-20 09:21:00,43.8,35.4,29.77,SSW,211,5.0,8.0,72,0.00,,,0.10,Wunderground v.1.13,2013-04-20 13:21:00,
2013-04-20 09:27:00,43.8,35.0,29.77,SSE,150,1.0,11.0,71,0.00,,,0.10,Wunderground v.1.13,2013-04-20 13:27:00,
2013-04-20 09:32:00,44.2,35.0,29.77,SW,223,3.0,13.0,70,0.00,,,0.10,Wunderground v.1.13,2013-04-20 13:32:00,
2013-04-20 09:37:00,45.0,36.9,29.77,SSW,208,10.0,10.0,73,0.00,,,0.10,Wunderground v.1.13,2013-04-20 13:37:00,
2013-04-20 09:42:00,45.4,35.1,29.77,South,190,2.0,4.0,67,0.00,,,0.10,Wunderground v.1.13,2013-04-20 13:42:00,
2013-04-20 09:47:00,45.8,35.8,29.77,East,99,4.0,9.0,68,0.00,,,0.10,Wunderground v.1.13,2013-04-20 13:47:00,
2013-04-20 09:52:00,45.6,34.9,29.78,SSW,192,9.0,9.0,66,0.00,,,0.10,Wunderground v.1.13,2013-04-20 13:52:00,
2013-04-20 09:57:00,45.3,33.8,29.77,WNW,294,3.0,10.0,64,0.00,,,0.10,Wunderground v.1.13,2013-04-20 13:57:00,
2013-04-20 10:02:00,45.3,33.4,29.77,SW,214,7.0,12.0,63,0.00,,,0.10,Wunderground v.1.13,2013-04-20 14:02:00,
2013-04-20 10:07:00,45.1,34.0,29.78,NE,34,3.0,13.0,65,0.00,,,0.10,Wunderground v.1.13,2013-04-20 14:07:00,
2013-04-20 10:12:00,45.5,32.8,29.78,East,92,5.0,6.0,61,0.00,,,0.10,Wunderground v.1.13,2013-04-20 14:12:00,
2013-04-20 10:17:00,45.5,32.8,29.78,SSW,201,3.0,7.0,61,0.00,,,0.10,Wunderground v.1.13,2013-04-20 14:17:00,
2013-04-20 10:22:00,45.5,32.0,29.79,East,96,3.0,8.0,59,0.00,,,0.10,Wunderground v.1.13,2013-04-20 14:22:00,
2013-04-20 10:27:00,45.0,33.2,29.79,NW,309,0.0,15.0,63,0.00,,,0.10,Wunderground v.1.13,2013-04-20 14:27:00,
2013-04-20 10:32:00,45.3,31.8,29.78,ENE,60,2.0,13.0,59,0.00,,,0.10,Wunderground v.1.13,2013-04-20 14:32:00,
2013-04-20 10:37:00,45.4,32.3,29.79,WNW,289,0.0,9.0,60,0.00,,,0.10,Wunderground v.1.13,2013-04-20 14:37:00,
2013-04-20 10:42:00,45.5,32.0,29.79,SSW,211,4.0,9.0,59,0.00,,,0.10,Wunderground v.1.13,2013-04-20 14:42:00,
2013-04-20 10:48:00,45.3,33.0,29.79,SE,137,5.0,9.0,62,0.00,,,0.10,Wunderground v.1.13,2013-04-20 14:48:00,
2013-04-20 10:53:00,45.3,31.8,29.79,SSE,164,2.0,6.0,59,0.00,,,0.10,Wunderground v.1.13,2013-04-20 14:53:00,
2013-04-20 10:58:00,45.2,31.7,29.79,NNW,330,1.0,8.0,59,0.00,,,0.10,Wunderground v.1.13,2013-04-20 14:58:00,
2013-04-20 11:03:00,45.3,32.2,29.79,WNW,290,2.0,11.0,60,0.00,,,0.10,Wunderground v.1.13,2013-04-20 15:03:00,
2013-04-20 11:08:00,45.5,32.4,29.80,SW,223,2.0,13.0,60,0.00,,,0.10,Wunderground v.1.13,2013-04-20 15:08:00,
2013-04-20 11:14:00,45.5,32.8,29.80,North,360,6.0,6.0,61,0.00,,,0.10,Wunderground v.1.13,2013-04-20 15:14:00,
2013-04-20 11:19:00,45.9,32.8,29.80,East,79,3.0,6.0,60,0.00,,,0.10,Wunderground v.1.13,2013-04-20 15:19:00,
2013-04-20 11:24:00,46.4,32.0,29.81,West,269,5.0,9.0,57,0.00,,,0.10,Wunderground v.1.13,2013-04-20 15:24:00,
2013-04-20 11:29:00,46.5,31.6,29.81,NNE,19,3.0,11.0,56,0.00,,,0.10,Wunderground v.1.13,2013-04-20 15:29:00,
2013-04-20 11:34:00,46.7,31.4,29.81,West,261,3.0,15.0,55,0.00,,,0.10,Wunderground v.1.13,2013-04-20 15:34:00,
2013-04-20 11:39:00,46.4,31.1,29.81,WSW,253,2.0,7.0,55,0.00,,,0.10,Wunderground v.1.13,2013-04-20 15:39:00,
2013-04-20 11:44:00,46.3,31.9,29.82,North,5,3.0,9.0,57,0.00,,,0.10,Wunderground v.1.13,2013-04-20 15:44:00,
2013-04-20 11:49:00,45.9,31.1,29.82,NE,38,1.0,7.0,56,0.00,,,0.10,Wunderground v.1.13,2013-04-20 15:49:00,
2013-04-20 11:54:00,46.3,31.4,29.82,North,9,9.0,9.0,56,0.00,,,0.10,Wunderground v.1.13,2013-04-20 15:54:00,
2013-04-20 11:59:00,46.8,32.4,29.82,NNE,14,0.0,13.0,57,0.00,,,0.10,Wunderground v.1.13,2013-04-20 15:59:00,
2013-04-20 12:04:00,47.6,31.8,29.82,North,360,12.0,12.0,54,0.00,,,0.10,Wunderground v.1.13,2013-04-20 16:04:00,
2013-04-20 12:09:00,47.3,32.4,29.83,North,355,4.0,6.0,56,0.00,,,0.10,Wunderground v.1.13,2013-04-20 16:09:00,
2013-04-20 12:14:00,46.9,31.1,29.83,ESE,123,2.0,11.0,54,0.00,,,0.10,Wunderground v.1.13,2013-04-20 16:14:00,
2013-04-20 12:19:00,46.7,32.7,29.83,East,98,3.0,5.0,58,0.00,,,0.10,Wunderground v.1.13,2013-04-20 16:19:00,
2013-04-20 12:25:00,47.6,33.1,29.83,NW,319,4.0,4.0,57,0.00,,,0.10,Wunderground v.1.13,2013-04-20 16:25:00,
2013-04-20 12:30:00,47.6,31.8,29.83,South,173,2.0,5.0,54,0.00,,,0.10,Wunderground v.1.13,2013-04-20 16:30:00,
2013-04-20 12:35:00,46.8,31.0,29.83,South,177,1.0,3.0,54,0.00,,,0.10,Wunderground v.1.13,2013-04-20 16:35:00,
2013-04-20 12:40:00,46.4,30.6,29.83,ENE,63,7.0,7.0,54,0.00,,,0.10,Wunderground v.1.13,2013-04-20 16:40:00,
2013-04-20 12:45:00,46.3,31.0,29.83,NNE,23,9.0,9.0,55,0.00,,,0.10,Wunderground v.1.13,2013-04-20 16:45:00,
2013-04-20 12:50:00,46.3,31.4,29.83,SSW,213,10.0,10.0,56,0.00,,,0.10,Wunderground v.1.13,2013-04-20 16:50:00,
2013-04-20 12:55:00,46.3,31.4,29.83,NE,42,3.0,7.0,56,0.00,,,0.10,Wunderground v.1.13,2013-04-20 16:55:00,
2013-04-20 13:00:00,46.4,32.0,29.84,SSW,206,0.0,2.0,57,0.00,,,0.10,Wunderground v.1.13,2013-04-20 17:00:00,
2013-04-20 13:05:00,46.5,31.2,29.84,SE,136,1.0,3.0,55,0.00,,,0.10,Wunderground v.1.13,2013-04-20 17:05:00,
2013-04-20 13:10:00,46.4,31.1,29.84,WNW,299,1.0,3.0,55,0.00,,,0.10,Wunderground v.1.13,2013-04-20 17:10:00,
2013-04-20 13:15:00,46.4,30.6,29.85,West,272,1.0,2.0,54,0.00,,,0.10,Wunderground v.1.13,2013-04-20 17:15:00,
2013-04-20 13:20:00,46.5,31.2,29.84,ENE,67,1.0,2.0,55,0.00,,,0.10,Wunderground v.1.13,2013-04-20 17:20:00,
2013-04-20 13:25:00,46.6,31.3,29.85,ENE,69,1.0,3.0,55,0.00,,,0.10,Wunderground v.1.13,2013-04-20 17:25:00,
2013-04-20 13:30:00,46.9,30.6,29.85,East,88,4.0,4.0,53,0.00,,,0.10,Wunderground v.1.13,2013-04-20 17:30:00,
2013-04-20 13:35:00,47.2,31.4,29.85,NNE,18,0.0,3.0,54,0.00,,,0.10,Wunderground v.1.13,2013-04-20 17:35:00,
2013-04-20 13:41:00,47.5,32.1,29.85,NNW,337,0.0,1.0,55,0.00,,,0.10,Wunderground v.1.13,2013-04-20 17:41:00,
2013-04-20 13:46:00,48.0,31.2,29.85,NW,322,4.0,10.0,52,0.00,,,0.10,Wunderground v.1.13,2013-04-20 17:46:00,
2013-04-20 13:51:00,47.9,31.6,29.85,ESE,109,2.0,4.0,53,0.00,,,0.10,Wunderground v.1.13,2013-04-20 17:51:00,
2013-04-20 13:56:00,48.2,31.4,29.86,South,173,3.0,4.0,52,0.00,,,0.10,Wunderground v.1.13,2013-04-20 17:56:00,
2013-04-20 14:01:00,48.3,31.5,29.86,WNW,296,5.0,6.0,52,0.00,,,0.10,Wunderground v.1.13,2013-04-20 18:01:00,
2013-04-20 14:06:00,48.1,31.3,29.86,North,355,2.0,4.0,52,0.00,,,0.10,Wunderground v.1.13,2013-04-20 18:06:00,
2013-04-20 14:11:00,48.0,30.2,29.86,NNE,22,1.0,9.0,50,0.00,,,0.10,Wunderground v.1.13,2013-04-20 18:11:00,
2013-04-20 14:16:00,47.9,30.6,29.86,SSE,157,14.0,14.0,51,0.00,,,0.10,Wunderground v.1.13,2013-04-20 18:16:00,
2013-04-20 14:21:00,48.1,31.8,29.86,ENE,65,1.0,5.0,53,0.00,,,0.10,Wunderground v.1.13,2013-04-20 18:21:00,
2013-04-20 14:26:00,48.5,30.7,29.86,ENE,75,2.0,2.0,50,0.00,,,0.10,Wunderground v.1.13,2013-04-20 18:26:00,
2013-04-20 14:32:00,48.7,29.9,29.86,SSW,201,11.0,14.0,48,0.00,,,0.10,Wunderground v.1.13,2013-04-20 18:32:00,
2013-04-20 14:37:00,48.2,29.4,29.86,SSW,199,2.0,6.0,48,0.00,,,0.10,Wunderground v.1.13,2013-04-20 18:37:00,
2013-04-20 14:42:00,48.2,29.9,29.86,East,83,0.0,4.0,49,0.00,,,0.10,Wunderground v.1.13,2013-04-20 18:42:00,
2013-04-20 14:47:00,48.5,30.7,29.87,East,81,1.0,2.0,50,0.00,,,0.10,Wunderground v.1.13,2013-04-20 18:47:00,
2013-04-20 14:52:00,49.0,33.1,29.87,SW,230,3.0,6.0,54,0.00,,,0.10,Wunderground v.1.13,2013-04-20 18:52:00,
2013-04-20 14:57:00,48.8,28.9,29.87,ENE,60,3.0,9.0,46,0.00,,,0.10,Wunderground v.1.13,2013-04-20 18:57:00,
2013-04-20 15:02:00,48.9,29.0,29.87,NNW,344,0.0,6.0,46,0.00,,,0.10,Wunderground v.1.13,2013-04-20 19:02:00,
2013-04-20 15:07:00,49.1,30.2,29.87,NNW,338,1.0,9.0,48,0.00,,,0.10,Wunderground v.1.13,2013-04-20 19:07:00,
2013-04-20 15:12:00,49.4,29.5,29.87,North,5,1.0,8.0,46,0.00,,,0.10,Wunderground v.1.13,2013-04-20 19:12:00,
2013-04-20 15:17:00,49.5,29.6,29.87,ENE,58,5.0,11.0,46,0.00,,,0.10,Wunderground v.1.13,2013-04-20 19:17:00,
2013-04-20 15:22:00,49.8,29.3,29.88,NNW,348,1.0,7.0,45,0.00,,,0.10,Wunderground v.1.13,2013-04-20 19:22:00,
2013-04-20 15:27:00,50.0,30.0,29.88,NW,323,3.0,8.0,46,0.00,,,0.10,Wunderground v.1.13,2013-04-20 19:27:00,
2013-04-20 15:32:00,51.0,30.4,29.88,NNE,25,0.0,6.0,45,0.00,,,0.10,Wunderground v.1.13,2013-04-20 19:32:00,
2013-04-20 15:37:00,50.1,29.0,29.89,SSE,167,4.0,7.0,44,0.00,,,0.10,Wunderground v.1.13,2013-04-20 19:37:00,
2013-04-20 15:42:00,49.3,29.4,29.89,West,278,4.0,9.0,46,0.00,,,0.10,Wunderground v.1.13,2013-04-20 19:42:00,
2013-04-20 15:48:00,49.3,30.4,29.89,ENE,78,10.0,10.0,48,0.00,,,0.10,Wunderground v.1.13,2013-04-20 19:48:00,
2013-04-20 15:53:00,50.3,32.4,29.89,NE,49,6.0,9.0,50,0.00,,,0.10,Wunderground v.1.13,2013-04-20 19:53:00,
2013-04-20 15:58:00,50.3,29.7,29.89,NNW,344,12.0,12.0,45,0.00,,,0.10,Wunderground v.1.13,2013-04-20 19:58:00,
2013-04-20 16:03:00,49.5,29.0,29.90,North,360,16.0,16.0,45,0.00,,,0.10,Wunderground v.1.13,2013-04-20 20:03:00,
2013-04-20 16:08:00,49.1,28.7,29.91,NE,50,7.0,10.0,45,0.00,,,0.10,Wunderground v.1.13,2013-04-20 20:08:00,
2013-04-20 16:13:00,49.2,29.3,29.91,North,355,5.0,6.0,46,0.00,,,0.10,Wunderground v.1.13,2013-04-20 20:13:00,
2013-04-20 16:18:00,49.2,29.8,29.91,ENE,78,2.0,7.0,47,0.00,,,0.10,Wunderground v.1.13,2013-04-20 20:18:00,
2013-04-20 16:23:00,49.6,29.1,29.91,North,11,24.0,24.0,45,0.00,,,0.10,Wunderground v.1.13,2013-04-20 20:23:00,
2013-04-20 16:28:00,49.4,28.4,29.92,SW,224,1.0,14.0,44,0.00,,,0.10,Wunderground v.1.13,2013-04-20 20:28:00,
2013-04-20 16:33:00,48.9,30.6,29.93,East,92,3.0,19.0,49,0.00,,,0.10,Wunderground v.1.13,2013-04-20 20:33:00,
2013-04-20 16:38:00,48.3,29.5,29.93,West,260,5.0,10.0,48,0.00,,,0.10,Wunderground v.1.13,2013-04-20 20:38:00,
2013-04-20 16:43:00,47.9,30.1,29.93,NW,309,2.0,10.0,50,0.00,,,0.10,Wunderground v.1.13,2013-04-20 20:43:00,
2013-04-20 16:49:00,47.5,28.3,29.94,WSW,239,6.0,11.0,47,0.00,,,0.10,Wunderground v.1.13,2013-04-20 20:49:00,
2013-04-20 16:54:00,47.2,28.0,29.95,South,186,13.0,13.0,47,0.00,,,0.10,Wunderground v.1.13,2013-04-20 20:54:00,
2013-04-20 16:59:00,47.0,27.3,29.95,WSW,249,4.0,7.0,46,0.00,,,0.10,Wunderground v.1.13,2013-04-20 20:59:00,
2013-04-20 17:04:00,47.4,28.7,29.95,East,100,6.0,12.0,48,0.00,,,0.10,Wunderground v.1.13,2013-04-20 21:04:00,
2013-04-20 17:09:00,48.0,25.4,29.95,SE,139,6.0,15.0,41,0.00,,,0.10,Wunderground v.1.13,2013-04-20 21:09:00,
2013-04-20 17:14:00,47.6,26.2,29.96,SW,230,7.0,17.0,43,0.00,,,0.10,Wunderground v.1.13,2013-04-20 21:14:00,
2013-04-20 17:19:00,47.4,25.4,29.96,NNW,345,12.0,14.0,42,0.00,,,0.10,Wunderground v.1.13,2013-04-20 21:19:00,
2013-04-20 17:24:00,47.1,25.2,29.96,ENE,78,7.0,15.0,42,0.00,,,0.10,Wunderground v.1.13,2013-04-20 21:24:00,
2013-04-20 17:30:00,47.1,25.2,29.97,NE,41,5.0,5.0,42,0.00,,,0.10,Wunderground v.1.13,2013-04-20 21:30:00,
2013-04-20 17:35:00,47.1,25.2,29.97,NNW,337,4.0,7.0,42,0.00,,,0.10,Wunderground v.1.13,2013-04-20 21:35:00,
2013-04-20 17:40:00,46.8,24.9,29.98,East,82,4.0,7.0,42,0.00,,,0.10,Wunderground v.1.13,2013-04-20 21:40:00,
2013-04-20 17:45:00,46.6,25.3,29.98,NNE,15,2.0,7.0,43,0.00,,,0.10,Wunderground v.1.13,2013-04-20 21:45:00,
2013-04-20 17:50:00,46.7,25.9,29.98,NNE,16,5.0,5.0,44,0.00,,,0.10,Wunderground v.1.13,2013-04-20 21:50:00,
2013-04-20 17:55:00,46.2,24.9,29.98,SSE,168,3.0,4.0,43,0.00,,,0.10,Wunderground v.1.13,2013-04-20 21:55:00,
2013-04-20 18:00:00,46.3,25.0,29.99,NE,51,8.0,8.0,43,0.00,,,0.10,Wunderground v.1.13,2013-04-20 22:00:00,
2013-04-20 18:05:00,46.3,26.1,29.99,North,11,2.0,4.0,45,0.00,,,0.10,Wunderground v.1.13,2013-04-20 22:05:00,
2013-04-20 18:10:00,46.1,24.8,29.99,ENE,71,1.0,4.0,43,0.00,,,0.10,Wunderground v.1.13,2013-04-20 22:10:00,
2013-04-20 18:15:00,45.8,25.1,30.00,NW,311,2.0,4.0,44,0.00,,,0.10,Wunderground v.1.13,2013-04-20 22:15:00,
2013-04-20 18:21:00,45.8,25.6,30.00,SSE,153,4.0,4.0,45,0.00,,,0.10,Wunderground v.1.13,2013-04-20 22:21:00,
2013-04-20 18:26:00,45.5,25.9,30.01,East,80,5.0,7.0,46,0.00,,,0.10,Wunderground v.1.13,2013-04-20 22:26:00,
2013-04-20 18:31:00,45.1,26.1,30.02,North,351,10.0,16.0,47,0.00,,,0.10,Wunderground v.1.13,2013-04-20 22:31:00,
2013-04-20 18:36:00,44.9,25.9,30.02,ENE,77,2.0,6.0,47,0.00,,,0.10,Wunderground v.1.13,2013-04-20 22:36:00,
2013-04-20 18:41:00,44.6,25.6,30.02,ENE,74,3.0,5.0,47,0.00,,,0.10,Wunderground v.1.13,2013-04-20 22:41:00,
2013-04-20 18:46:00,44.2,25.2,30.02,NE,44,4.0,10.0,47,0.00,,,0.10,Wunderground v.1.13,2013-04-20 22:46:00,
2013-04-20 18:51:00,43.8,24.9,30.03,SSE,155,3.0,7.0,47,0.00,,,0.10,Wunderground v.1.13,2013-04-20 22:51:00,
2013-04-20 18:56:00,43.5,25.1,30.03,SE,146,1.0,5.0,48,0.00,,,0.10,Wunderground v.1.13,2013-04-20 22:56:00,
2013-04-20 19:01:00,43.3,24.9,30.03,South,173,5.0,10.0,48,0.00,,,0.10,Wunderground v.1.13,2013-04-20 23:01:00,
2013-04-20 19:06:00,43.1,25.7,30.04,NE,38,2.0,5.0,50,0.00,,,0.10,Wunderground v.1.13,2013-04-20 23:06:00,
2013-04-20 19:11:00,42.8,24.9,30.04,North,350,6.0,12.0,49,0.00,,,0.10,Wunderground v.1.13,2013-04-20 23:11:00,
2013-04-20 19:16:00,42.7,24.4,30.05,SW,234,5.0,9.0,48,0.00,,,0.10,Wunderground v.1.13,2013-04-20 23:16:00,
2013-04-20 19:21:00,42.6,24.3,30.05,WSW,254,0.0,7.0,48,0.00,,,0.10,Wunderground v.1.13,2013-04-20 23:21:00,
2013-04-20 19:27:00,42.4,25.1,30.06,East,95,3.0,7.0,50,0.00,,,0.10,Wunderground v.1.13,2013-04-20 23:27:00,
2013-04-20 19:32:00,42.2,23.9,30.06,SE,126,4.0,11.0,48,0.00,,,0.10,Wunderground v.1.13,2013-04-20 23:32:00,
2013-04-20 19:37:00,42.0,23.7,30.06,SE,133,3.0,9.0,48,0.00,,,0.10,Wunderground v.1.13,2013-04-20 23:37:00,
2013-04-20 19:42:00,41.7,23.4,30.07,ENE,67,4.0,5.0,48,0.00,,,0.10,Wunderground v.1.13,2013-04-20 23:42:00,
2013-04-20 19:48:00,41.4,23.6,30.07,NNW,344,3.0,12.0,49,0.00,,,0.10,Wunderground v.1.13,2013-04-20 23:48:00,
2013-04-20 19:53:00,41.3,23.1,30.07,WNW,299,2.0,12.0,48,0.00,,,0.10,Wunderground v.1.13,2013-04-20 23:53:00,
2013-04-20 19:58:00,41.1,23.4,30.09,ENE,58,5.0,9.0,49,0.00,,,0.10,Wunderground v.1.13,2013-04-20 23:58:00,
2013-04-20 20:03:00,41.0,22.8,30.09,NNE,29,1.0,12.0,48,0.00,,,0.10,Wunderground v.1.13,2013-04-21 00:03:00,
2013-04-20 20:08:00,40.7,23.0,30.09,ENE,78,1.0,13.0,49,0.00,,,0.10,Wunderground v.1.13,2013-04-21 00:08:00,
2013-04-20 20:13:00,40.6,22.4,30.11,West,270,3.0,11.0,48,0.00,,,0.10,Wunderground v.1.13,2013-04-21 00:13:00,
2013-04-20 20:18:00,40.6,22.9,30.11,North,360,0.0,11.0,49,0.00,,,0.10,Wunderground v.1.13,2013-04-21 00:18:00,
2013-04-20 20:23:00,40.5,23.8,30.12,West,270,9.0,9.0,51,0.00,,,0.10,Wunderground v.1.13,2013-04-21 00:23:00,
2013-04-20 20:28:00,40.2,24.0,30.13,East,86,2.0,5.0,52,0.00,,,0.10,Wunderground v.1.13,2013-04-21 00:28:00,
2013-04-20 20:33:00,40.0,23.3,30.13,NNE,14,0.0,6.0,51,0.00,,,0.10,Wunderground v.1.13,2013-04-21 00:33:00,
2013-04-20 20:38:00,39.9,23.2,30.14,ENE,78,2.0,6.0,51,0.00,,,0.10,Wunderground v.1.13,2013-04-21 00:38:00,
2013-04-20 20:43:00,39.8,23.1,30.14,ESE,115,3.0,9.0,51,0.00,,,0.10,Wunderground v.1.13,2013-04-21 00:43:00,
2013-04-20 20:48:00,39.7,22.6,30.14,North,355,0.0,7.0,50,0.00,,,0.10,Wunderground v.1.13,2013-04-21 00:48:00,
2013-04-20 20:53:00,39.5,22.4,30.15,NNE,29,0.0,7.0,50,0.00,,,0.10,Wunderground v.1.13,2013-04-21 00:53:00,
2013-04-20 20:58:00,39.3,22.2,30.15,NNW,331,3.0,6.0,50,0.00,,,0.10,Wunderground v.1.13,2013-04-21 00:58:00,
2013-04-20 21:03:00,39.1,21.5,30.16,SSW,209,0.0,6.0,49,0.00,,,0.10,Wunderground v.1.13,2013-04-21 01:03:00,
2013-04-20 21:08:00,38.9,21.8,30.16,NW,314,6.0,6.0,50,0.00,,,0.10,Wunderground v.1.13,2013-04-21 01:08:00,
2013-04-20 21:13:00,38.8,22.2,30.17,NW,306,4.0,9.0,51,0.00,,,0.10,Wunderground v.1.13,2013-04-21 01:13:00,
2013-04-20 21:19:00,38.5,21.5,30.17,North,355,4.0,10.0,50,0.00,,,0.10,Wunderground v.1.13,2013-04-21 01:19:00,
2013-04-20 21:24:00,38.4,21.4,30.18,NW,321,1.0,11.0,50,0.00,,,0.10,Wunderground v.1.13,2013-04-21 01:24:00,
2013-04-20 21:29:00,38.3,22.2,30.18,East,86,2.0,4.0,52,0.00,,,0.10,Wunderground v.1.13,2013-04-21 01:29:00,
2013-04-20 21:34:00,38.2,21.6,30.18,West,271,5.0,7.0,51,0.00,,,0.10,Wunderground v.1.13,2013-04-21 01:34:00,
2013-04-20 21:39:00,38.2,22.1,30.19,NNE,32,3.0,4.0,52,0.00,,,0.10,Wunderground v.1.13,2013-04-21 01:39:00,
2013-04-20 21:44:00,38.0,22.4,30.19,NNW,342,3.0,7.0,53,0.00,,,0.10,Wunderground v.1.13,2013-04-21 01:44:00,
2013-04-20 21:49:00,37.8,22.2,30.20,SE,132,3.0,8.0,53,0.00,,,0.10,Wunderground v.1.13,2013-04-21 01:49:00,
2013-04-20 21:54:00,37.6,22.4,30.20,ESE,103,2.0,9.0,54,0.00,,,0.10,Wunderground v.1.13,2013-04-21 01:54:00,
2013-04-20 21:59:00,37.4,21.8,30.20,SW,217,3.0,5.0,53,0.00,,,0.10,Wunderground v.1.13,2013-04-21 01:59:00,
2013-04-20 22:04:00,37.2,20.7,30.21,NNE,22,3.0,12.0,51,0.00,,,0.10,Wunderground v.1.13,2013-04-21 02:04:00,
2013-04-20 22:10:00,36.9,20.0,30.20,WNW,298,11.0,11.0,50,0.00,,,0.10,Wunderground v.1.13,2013-04-21 02:10:00,
2013-04-20 22:15:00,36.8,19.9,30.21,SSW,204,3.0,5.0,50,0.00,,,0.10,Wunderground v.1.13,2013-04-21 02:15:00,
2013-04-20 22:20:00,36.7,19.8,30.21,SW,214,5.0,5.0,50,0.00,,,0.10,Wunderground v.1.13,2013-04-21 02:20:00,
2013-04-20 22:25:00,36.6,20.6,30.22,WNW,288,3.0,3.0,52,0.00,,,0.10,Wunderground v.1.13,2013-04-21 02:25:00,
2013-04-20 22:30:00,36.5,21.0,30.22,WSW,242,4.0,4.0,53,0.00,,,0.10,Wunderground v.1.13,2013-04-21 02:30:00,
2013-04-20 22:35:00,36.4,20.4,30.22,South,180,4.0,5.0,52,0.00,,,0.10,Wunderground v.1.13,2013-04-21 02:35:00,
2013-04-20 22:40:00,36.4,20.9,30.22,ENE,60,1.0,2.0,53,0.00,,,0.10,Wunderground v.1.13,2013-04-21 02:40:00,
2013-04-20 22:45:00,36.3,20.8,30.23,East,82,0.0,2.0,53,0.00,,,0.10,Wunderground v.1.13,2013-04-21 02:45:00,
2013-04-20 22:50:00,36.2,20.7,30.23,SW,232,2.0,2.0,53,0.00,,,0.10,Wunderground v.1.13,2013-04-21 02:50:00,
2013-04-20 22:55:00,35.9,19.5,30.23,SW,230,9.0,9.0,51,0.00,,,0.10,Wunderground v.1.13,2013-04-21 02:55:00,
2013-04-20 23:00:00,35.8,19.4,30.24,ENE,75,2.0,4.0,51,0.00,,,0.10,Wunderground v.1.13,2013-04-21 03:00:00,
2013-04-20 23:05:00,35.7,19.8,30.24,WSW,252,0.0,5.0,52,0.00,,,0.10,Wunderground v.1.13,2013-04-21 03:05:00,
2013-04-20 23:10:00,35.6,19.7,30.24,ENE,59,10.0,10.0,52,0.00,,,0.10,Wunderground v.1.13,2013-04-21 03:10:00,
2013-04-20 23:16:00,35.5,19.6,30.25,South,175,3.0,3.0,52,0.00,,,0.10,Wunderground v.1.13,2013-04-21 03:16:00,
2013-04-20 23:21:00,35.5,19.1,30.25,East,99,0.0,2.0,51,0.00,,,0.10,Wunderground v.1.13,2013-04-21 03:21:00,
2013-04-20 23:26:00,35.3,19.4,30.25,East,98,3.0,6.0,52,0.00,,,0.10,Wunderground v.1.13,2013-04-21 03:26:00,
2013-04-20 23:31:00,35.1,18.8,30.25,WSW,250,1.0,4.0,51,0.00,,,0.10,Wunderground v.1.13,2013-04-21 03:31:00,
2013-04-20 23:36:00,35.0,19.1,30.25,NNE,17,1.0,2.0,52,0.00,,,0.10,Wunderground v.1.13,2013-04-21 03:36:00,
2013-04-20 23:41:00,34.9,19.0,30.26,ENE,78,1.0,2.0,52,0.00,,,0.10,Wunderground v.1.13,2013-04-21 03:41:00,
2013-04-20 23:46:00,34.9,18.6,30.26,ENE,64,5.0,5.0,51,0.00,,,0.10,Wunderground v.1.13,2013-04-21 03:46:00,
2013-04-20 23:51:00,34.9,19.0,30.26,ENE,65,0.0,5.0,52,0.00,,,0.10,Wunderground v.1.13,2013-04-21 03:51:00,
2013-04-20 23:56:00,34.8,18.9,30.25,West,259,0.0,7.0,52,0.00,,,0.10,Wunderground v.1.13,2013-04-21 03:56:00,